createdAt,value
2018-10-06T00:00:04.145Z,119
2018-10-06T00:05:04.131Z,119
2018-10-06T00:10:04.131Z,119
2018-10-06T00:15:04.159Z,119
2018-10-06T00:20:04.137Z,119
2018-10-06T00:25:04.162Z,119
2018-10-06T00:30:04.164Z,119
2018-10-06T00:35:04.155Z,119
2018-10-06T00:40:04.148Z,119
2018-10-06T00:45:04.177Z,119
2018-10-06T00:50:04.161Z,119
2018-10-06T00:55:04.182Z,119
2018-10-06T01:00:04.191Z,119
2018-10-06T01:05:04.166Z,119
2018-10-06T01:10:04.171Z,119
2018-10-06T01:15:04.211Z,119
2018-10-06T01:20:04.193Z,119
2018-10-06T01:25:04.192Z,119
2018-10-06T01:30:04.199Z,119
2018-10-06T01:35:04.183Z,119
2018-10-06T01:40:04.186Z,119
2018-10-06T01:45:04.193Z,119
2018-10-06T01:50:04.358Z,119
2018-10-06T01:55:04.202Z,119
2018-10-06T02:00:04.216Z,119
2018-10-06T02:05:04.202Z,119
2018-10-06T02:10:04.212Z,119
2018-10-06T02:15:04.218Z,119
2018-10-06T02:20:04.212Z,119
2018-10-06T02:25:04.238Z,119
2018-10-06T02:30:04.456Z,119
2018-10-06T02:35:04.224Z,119
2018-10-06T02:40:04.298Z,119
2018-10-06T02:45:04.221Z,119
2018-10-06T02:50:04.254Z,119
2018-10-06T02:55:04.224Z,119
2018-10-06T03:00:04.277Z,119
2018-10-06T03:05:04.228Z,119
2018-10-06T03:10:04.234Z,119
2018-10-06T03:15:04.258Z,119
2018-10-06T03:20:04.259Z,119
2018-10-06T03:25:04.249Z,119
2018-10-06T03:30:04.518Z,119
2018-10-06T03:35:04.277Z,119
2018-10-06T03:40:04.246Z,119
2018-10-06T03:45:04.249Z,119
2018-10-06T03:50:04.264Z,119
2018-10-06T03:55:04.257Z,119
2018-10-06T04:00:04.261Z,119
2018-10-06T04:05:04.363Z,119
2018-10-06T04:10:04.267Z,119
2018-10-06T04:15:04.271Z,119
2018-10-06T04:20:04.289Z,119
2018-10-06T04:25:04.271Z,119
2018-10-06T04:30:04.293Z,119
2018-10-06T04:35:04.295Z,119
2018-10-06T04:40:04.284Z,119
2018-10-06T04:45:04.335Z,119
2018-10-06T04:50:04.318Z,119
2018-10-06T04:55:04.308Z,119
2018-10-06T05:00:04.294Z,119
2018-10-06T05:05:04.322Z,119
2018-10-06T05:10:04.295Z,119
2018-10-06T05:15:04.306Z,119
2018-10-06T05:20:04.328Z,119
2018-10-06T05:25:04.301Z,119
2018-10-06T05:30:04.312Z,119
2018-10-06T05:35:04.343Z,119
2018-10-06T05:40:04.316Z,119
2018-10-06T05:45:04.321Z,119
2018-10-06T05:50:04.325Z,119
2018-10-06T05:55:04.340Z,119
2018-10-06T06:00:04.341Z,119
2018-10-06T06:05:04.347Z,119
2018-10-06T06:10:04.349Z,119
2018-10-06T06:15:04.337Z,119
2018-10-06T06:20:04.349Z,119
2018-10-06T06:25:04.357Z,119
2018-10-06T06:30:04.347Z,119
2018-10-06T06:35:04.347Z,119
2018-10-06T06:40:04.340Z,119
2018-10-06T06:45:04.490Z,119
2018-10-06T06:50:04.372Z,119
2018-10-06T06:55:04.593Z,119
2018-10-06T07:00:04.355Z,119
2018-10-06T07:05:04.364Z,119
2018-10-06T07:10:04.381Z,119
2018-10-06T07:15:04.364Z,119
2018-10-06T07:20:04.372Z,119
2018-10-06T07:25:04.399Z,119
2018-10-06T07:30:04.386Z,119
2018-10-06T07:35:04.381Z,119
2018-10-06T07:40:04.377Z,119
2018-10-06T07:45:04.503Z,119
2018-10-06T07:50:04.394Z,119
2018-10-06T07:55:04.388Z,119
2018-10-06T08:00:04.397Z,119
2018-10-06T08:05:04.398Z,119
2018-10-06T08:10:04.395Z,119
2018-10-06T08:15:04.412Z,119
2018-10-06T08:20:04.408Z,119
2018-10-06T08:25:04.414Z,119
2018-10-06T08:30:04.400Z,119
2018-10-06T08:35:04.442Z,119
2018-10-06T08:40:04.450Z,119
2018-10-06T08:45:04.425Z,119
2018-10-06T08:50:04.421Z,119
2018-10-06T08:55:04.412Z,119
2018-10-06T09:00:04.416Z,119
2018-10-06T09:05:04.434Z,119
2018-10-06T09:10:04.443Z,119
2018-10-06T09:15:04.436Z,119
2018-10-06T09:20:04.438Z,119
2018-10-06T09:25:04.449Z,119
2018-10-06T09:30:04.435Z,119
2018-10-06T09:35:04.465Z,119
2018-10-06T09:40:03.446Z,119
2018-10-06T09:45:03.446Z,119
2018-10-06T09:50:03.468Z,119
2018-10-06T09:55:03.467Z,119
2018-10-06T10:00:03.467Z,119
2018-10-06T10:05:03.460Z,119
2018-10-06T10:10:03.719Z,117.62
2018-10-06T10:15:03.479Z,92.23
2018-10-06T10:20:03.482Z,69.34
2018-10-06T10:25:03.481Z,44.5
2018-10-06T10:30:03.482Z,55
2018-10-06T10:35:03.470Z,34.56
2018-10-06T10:40:03.494Z,34.9
2018-10-06T10:45:03.509Z,57.34
2018-10-06T10:50:03.482Z,42.23
2018-10-06T10:55:03.521Z,53.51
2018-10-06T11:00:03.977Z,37.57
2018-10-06T11:05:03.498Z,50.43
2018-10-06T11:10:03.510Z,35.87
2018-10-06T11:15:03.497Z,33.55
2018-10-06T11:20:03.496Z,28.8
2018-10-06T11:25:03.559Z,23.25
2018-10-06T11:30:03.513Z,11.83
2018-10-06T11:35:03.520Z,4.67
2018-10-06T11:40:03.524Z,-2.99
2018-10-06T11:45:03.514Z,-2.53
2018-10-06T11:50:03.568Z,-6
2018-10-06T11:55:03.533Z,-6
2018-10-06T12:00:03.897Z,-6
2018-10-06T12:05:03.528Z,-6
2018-10-06T12:10:03.546Z,-6
2018-10-06T12:15:03.555Z,-6
2018-10-06T12:20:03.544Z,-6
2018-10-06T12:25:03.544Z,-6
2018-10-06T12:30:03.556Z,-6
2018-10-06T12:35:03.713Z,-6
2018-10-06T12:40:03.549Z,-6
2018-10-06T12:45:03.553Z,-6
2018-10-06T12:50:03.546Z,-6
2018-10-06T12:55:03.555Z,-6
2018-10-06T13:00:03.755Z,-6
2018-10-06T13:05:03.551Z,-6
2018-10-06T13:10:03.582Z,-6
2018-10-06T13:15:03.560Z,-6
2018-10-06T13:20:03.561Z,-6
2018-10-06T13:25:03.593Z,-6
2018-10-06T13:30:03.567Z,-6
2018-10-06T13:35:03.563Z,-6
2018-10-06T13:40:03.591Z,-6
2018-10-06T13:45:03.570Z,-6
2018-10-06T13:50:03.589Z,-6
2018-10-06T13:55:03.606Z,-6
2018-10-06T14:00:03.609Z,-6
2018-10-06T14:05:03.618Z,-6
2018-10-06T14:10:03.615Z,-6
2018-10-06T14:15:03.591Z,-6
2018-10-06T14:20:03.599Z,-6
2018-10-06T14:25:03.606Z,-6
2018-10-06T14:30:03.602Z,-6
2018-10-06T14:35:03.615Z,-6
2018-10-06T14:40:03.620Z,-6
2018-10-06T14:45:03.624Z,-6
2018-10-06T14:50:03.734Z,-6
2018-10-06T14:55:03.616Z,-6
2018-10-06T15:00:03.612Z,-6
2018-10-06T15:05:03.616Z,-6
2018-10-06T15:10:03.724Z,-6
2018-10-06T15:15:03.628Z,-6
2018-10-06T15:20:03.624Z,-6
2018-10-06T15:25:03.659Z,-6
2018-10-06T15:30:03.634Z,-6
2018-10-06T15:35:03.628Z,-6
2018-10-06T15:40:03.665Z,-6
2018-10-06T15:45:03.651Z,-6
2018-10-06T15:50:03.634Z,-6
2018-10-06T15:55:03.708Z,-6
2018-10-06T16:00:03.648Z,-6
2018-10-06T16:05:03.644Z,-6
2018-10-06T16:10:03.658Z,-6
2018-10-06T16:15:03.653Z,-3.81
2018-10-06T16:20:03.651Z,10.55
2018-10-06T16:25:03.671Z,18.75
2018-10-06T16:30:03.682Z,26.7
2018-10-06T16:35:03.664Z,35.87
2018-10-06T16:40:03.681Z,47.43
2018-10-06T16:45:03.669Z,64.75
2018-10-06T16:50:03.694Z,68.33
2018-10-06T16:55:03.698Z,81.3
2018-10-06T17:00:03.691Z,95.02
2018-10-06T17:05:03.679Z,108.01
2018-10-06T17:10:03.688Z,111.66
2018-10-06T17:15:03.705Z,119
2018-10-06T17:20:03.689Z,112.27
2018-10-06T17:25:03.900Z,109.54
2018-10-06T17:30:03.707Z,104.19
2018-10-06T17:35:03.695Z,92.75
2018-10-06T17:40:03.721Z,89.2
2018-10-06T17:45:03.697Z,81.83
2018-10-06T17:50:04.171Z,84.9
2018-10-06T17:55:03.725Z,86.61
2018-10-06T18:00:03.731Z,85.2
2018-10-06T18:05:04.137Z,88.85
2018-10-06T18:10:03.718Z,95.15
2018-10-06T18:15:03.721Z,103.69
2018-10-06T18:20:03.890Z,103.42
2018-10-06T18:25:03.733Z,102.43
2018-10-06T18:30:03.728Z,102.49
2018-10-06T18:35:03.734Z,101.39
2018-10-06T18:40:03.737Z,102.81
2018-10-06T18:45:03.752Z,102.17
2018-10-06T18:50:03.736Z,93.2
2018-10-06T18:55:03.747Z,99.02
2018-10-06T19:00:03.747Z,104.16
2018-10-06T19:05:03.761Z,109.54
2018-10-06T19:10:03.902Z,108.53
2018-10-06T19:15:03.754Z,115.48
2018-10-06T19:20:03.828Z,113.23
2018-10-06T19:25:03.774Z,113.13
2018-10-06T19:30:03.766Z,113.57
2018-10-06T19:35:03.760Z,113.59
2018-10-06T19:40:03.785Z,119
2018-10-06T19:45:03.784Z,119
2018-10-06T19:50:03.775Z,119
2018-10-06T19:55:03.787Z,119
2018-10-06T20:00:03.786Z,119
2018-10-06T20:05:03.777Z,119
2018-10-06T20:10:03.797Z,119
2018-10-06T20:15:03.776Z,119
2018-10-06T20:20:03.805Z,119
2018-10-06T20:25:03.786Z,119
2018-10-06T20:30:03.798Z,119
2018-10-06T20:35:03.791Z,119
2018-10-06T20:40:03.895Z,119
2018-10-06T20:45:03.795Z,119
2018-10-06T20:50:03.797Z,119
2018-10-06T20:55:03.806Z,119
2018-10-06T21:00:03.818Z,119
2018-10-06T21:05:03.821Z,119
2018-10-06T21:10:03.812Z,119
2018-10-06T21:15:03.832Z,119
2018-10-06T21:20:03.836Z,119
2018-10-06T21:25:03.817Z,119
2018-10-06T21:30:03.820Z,119
2018-10-06T21:35:03.847Z,119
2018-10-06T21:40:03.824Z,119
2018-10-06T21:45:03.846Z,119
2018-10-06T21:50:03.831Z,119
2018-10-06T21:55:03.831Z,119
2018-10-06T22:00:03.837Z,119
2018-10-06T22:05:03.835Z,119
2018-10-06T22:10:03.840Z,119
2018-10-06T22:15:03.912Z,119
2018-10-06T22:20:03.847Z,119
2018-10-06T22:25:03.844Z,119
2018-10-06T22:30:03.856Z,119
2018-10-06T22:35:03.849Z,119
2018-10-06T22:40:03.879Z,119
2018-10-06T22:45:03.885Z,119
2018-10-06T22:50:03.859Z,119
2018-10-06T22:55:03.866Z,119
2018-10-06T23:00:03.889Z,119
2018-10-06T23:05:03.874Z,119
2018-10-06T23:10:03.896Z,119
2018-10-06T23:15:03.892Z,119
2018-10-06T23:20:03.891Z,119
2018-10-06T23:25:03.884Z,119
2018-10-06T23:30:03.900Z,119
2018-10-06T23:35:03.887Z,119
2018-10-06T23:40:03.893Z,119
2018-10-06T23:45:03.892Z,119
2018-10-06T23:50:03.911Z,119
2018-10-06T23:55:03.912Z,119
